Time;durP1;ratioP1;P1;durP2;ratioP2;P2;SDS_P1;SDS_P2;PMS_P1;PMS_P2;Temp;Humidity;BMP_temperature;BMP_pressure;BME280_temperature;BME280_humidity;BME280_pressure;Samples;Min_cycle;Max_cycle;Signal;HPM_P1;HPM_P2
2022/09/26 00:02:09;;;;;;;;;;;;;;;21.70;39.53;100625.33;104444;1308;62113;-84
2022/09/26 00:04:35;;;;;;;;;;;;;;;21.71;39.51;100623.67;104553;1309;62247;-84
2022/09/26 00:07:01;;;;;;;;;;;;;;;21.70;39.53;100624.05;104489;1309;74827;-82
2022/09/26 00:09:26;;;;;;;;;;;;;;;21.70;39.56;100617.61;104541;1309;62152;-83
2022/09/26 00:11:52;;;;;;;;;;;;;;;21.70;39.48;100619.06;104439;1309;62093;-83
2022/09/26 00:14:20;;;;;;;;;;;;;;;21.70;39.45;100617.45;104413;1308;62161;-83
2022/09/26 00:16:46;;;;;;;;;;;;;;;21.70;39.67;100614.27;104382;1311;61955;-83
2022/09/26 00:19:11;;;;;;;;;;;;;;;21.69;39.55;100609.45;104458;1308;62058;-84
2022/09/26 00:21:37;;;;;;;;;;;;;;;21.70;39.69;100610.30;104469;1309;62105;-82
2022/09/26 00:24:03;;;;;;;;;;;;;;;21.70;39.76;100606.38;104519;1309;62090;-83
2022/09/26 00:26:29;;;;;;;;;;;;;;;21.69;39.65;100605.69;104478;1310;62136;-86
2022/09/26 00:28:57;;;;;;;;;;;;;;;21.69;39.85;100608.58;104474;1309;76632;-83
2022/09/26 00:31:27;;;;;;;;;;;;;;;21.69;39.47;100608.95;104644;1309;61986;-88
2022/09/26 00:33:53;;;;;;;;;;;;;;;21.69;39.53;100604.98;104523;1309;62024;-83
2022/09/26 00:36:19;;;;;;;;;;;;;;;21.69;39.61;100604.09;104626;1309;62184;-83
2022/09/26 00:38:44;;;;;;;;;;;;;;;21.69;39.72;100603.06;104529;1308;61994;-82
2022/09/26 00:41:10;;;;;;;;;;;;;;;21.69;39.62;100600.20;104614;1309;62194;-83
2022/09/26 00:43:40;;;;;;;;;;;;;;;21.69;39.73;100601.96;104497;1309;62277;-84
2022/09/26 00:46:18;;;;;;;;;;;;;;;21.69;39.75;100599.81;104653;1309;72850;-82
2022/09/26 00:48:44;;;;;;;;;;;;;;;21.69;39.69;100597.13;104623;1308;74479;-82
2022/09/26 00:51:10;;;;;;;;;;;;;;;21.69;39.67;100592.13;104536;1309;62012;-84
2022/09/26 00:53:40;;;;;;;;;;;;;;;21.68;39.68;100590.36;104451;1308;62195;-84
2022/09/26 00:56:08;;;;;;;;;;;;;;;21.69;39.74;100588.55;104499;1308;72938;-84
2022/09/26 00:58:37;;;;;;;;;;;;;;;21.68;39.83;100587.52;104631;1309;76391;-83
2022/09/26 01:01:03;;;;;;;;;;;;;;;21.68;39.54;100587.33;104519;1309;62097;-84
2022/09/26 01:03:28;;;;;;;;;;;;;;;21.68;39.69;100579.83;104529;1309;62213;-84
2022/09/26 01:05:54;;;;;;;;;;;;;;;21.68;39.66;100578.05;104516;1309;62100;-84
2022/09/26 01:08:21;;;;;;;;;;;;;;;21.68;39.65;100576.61;104454;1309;62823;-83
2022/09/26 01:10:46;;;;;;;;;;;;;;;21.68;39.90;100576.98;104619;1309;62014;-86
2022/09/26 01:13:12;;;;;;;;;;;;;;;21.67;39.78;100579.84;104623;1308;62097;-83
2022/09/26 01:15:40;;;;;;;;;;;;;;;21.68;39.87;100581.98;104521;1309;62293;-83
2022/09/26 01:18:06;;;;;;;;;;;;;;;21.68;39.84;100582.34;104613;1309;62299;-81
2022/09/26 01:20:45;;;;;;;;;;;;;;;21.68;39.69;100580.73;104558;1309;62068;-82
2022/09/26 01:23:13;;;;;;;;;;;;;;;21.68;39.93;100578.78;104557;1309;62546;-83
2022/09/26 01:26:00;;;;;;;;;;;;;;;21.68;39.93;100580.75;104501;1309;74071;-85
2022/09/26 01:28:32;;;;;;;;;;;;;;;21.68;39.80;100581.79;104494;1308;75336;-84
2022/09/26 01:31:16;;;;;;;;;;;;;;;21.68;39.91;100578.78;104631;1309;61998;-85
2022/09/26 01:33:42;;;;;;;;;;;;;;;21.68;39.66;100580.73;104640;1309;61976;-87
2022/09/26 01:36:40;;;;;;;;;;;;;;;21.68;40.00;100574.67;104606;1309;62229;-82
2022/09/26 01:39:22;;;;;;;;;;;;;;;21.67;39.86;100575.20;104094;1316;76735;-82
2022/09/26 01:42:02;;;;;;;;;;;;;;;21.67;39.82;100575.94;104101;1316;62286;-84
2022/09/26 01:44:28;;;;;;;;;;;;;;;21.68;39.87;100575.02;104148;1316;62254;-84
2022/09/26 01:47:13;;;;;;;;;;;;;;;21.68;39.92;100578.41;104091;1316;62073;-83
2022/09/26 01:49:39;;;;;;;;;;;;;;;21.68;39.85;100575.53;104139;1316;75453;-85
2022/09/26 01:52:14;;;;;;;;;;;;;;;21.68;39.83;100573.77;104108;1316;62271;-83
2022/09/26 01:54:58;;;;;;;;;;;;;;;21.68;39.92;100575.36;104152;1316;62107;-83
2022/09/26 01:57:28;;;;;;;;;;;;;;;21.67;39.94;100575.03;104141;1316;73868;-82
2022/09/26 01:59:55;;;;;;;;;;;;;;;21.67;39.79;100567.16;104102;1316;75583;-82
2022/09/26 02:02:24;;;;;;;;;;;;;;;21.68;39.92;100572.16;104123;1316;61988;-83
2022/09/26 02:04:55;;;;;;;;;;;;;;;21.67;40.02;100573.80;104121;1316;62013;-83
2022/09/26 02:07:23;;;;;;;;;;;;;;;21.68;39.88;100571.45;104100;1316;73629;-85
2022/09/26 02:09:58;;;;;;;;;;;;;;;21.67;39.88;100569.69;104170;1316;75736;-81
2022/09/26 02:12:25;;;;;;;;;;;;;;;21.67;39.87;100568.98;104182;1316;62196;-82
2022/09/26 02:14:52;;;;;;;;;;;;;;;21.67;39.87;100564.31;104258;1309;62006;-85
2022/09/26 02:17:19;;;;;;;;;;;;;;;21.67;40.13;100561.80;104522;1309;62009;-83
2022/09/26 02:19:46;;;;;;;;;;;;;;;21.67;39.86;100565.58;104536;1309;75861;-83
2022/09/26 02:22:11;;;;;;;;;;;;;;;21.67;39.94;100558.95;104587;1309;61970;-85
2022/09/26 02:24:37;;;;;;;;;;;;;;;21.67;40.05;100557.91;104518;1309;62131;-85
2022/09/26 02:27:03;;;;;;;;;;;;;;;21.66;40.09;100555.60;104554;1309;62184;-83
2022/09/26 02:29:28;;;;;;;;;;;;;;;21.66;40.11;100556.14;104616;1309;62073;-84
2022/09/26 02:31:55;;;;;;;;;;;;;;;21.66;39.97;100552.37;104539;1309;62092;-87
2022/09/26 02:34:21;;;;;;;;;;;;;;;21.66;40.15;100552.74;104649;1308;62081;-83
2022/09/26 02:36:47;;;;;;;;;;;;;;;21.66;39.98;100551.66;104498;1309;62160;-84
2022/09/26 02:39:15;;;;;;;;;;;;;;;21.66;40.02;100553.12;104616;1308;60140;-83
2022/09/26 02:41:43;;;;;;;;;;;;;;;21.67;39.96;100557.17;104474;1308;62100;-86
2022/09/26 02:44:41;;;;;;;;;;;;;;;21.66;39.75;100561.02;104575;1309;62213;-84
2022/09/26 02:47:10;;;;;;;;;;;;;;;21.66;39.97;100565.32;104159;1316;73211;-84
2022/09/26 02:49:53;;;;;;;;;;;;;;;21.66;39.83;100568.54;104169;1316;76629;-83
2022/09/26 02:52:33;;;;;;;;;;;;;;;21.66;39.83;100566.55;104204;1316;61982;-84
2022/09/26 02:55:13;;;;;;;;;;;;;;;21.66;39.96;100564.58;103876;1316;61985;-84
2022/09/26 02:57:39;;;;;;;;;;;;;;;21.66;39.87;100561.38;104143;1316;74180;-84
2022/09/26 03:00:12;;;;;;;;;;;;;;;21.66;39.87;100562.43;104082;1317;62204;-85
2022/09/26 03:02:39;;;;;;;;;;;;;;;21.66;39.82;100564.07;104090;1317;62032;-82
2022/09/26 03:05:05;;;;;;;;;;;;;;;21.66;39.91;100565.14;104143;1316;61971;-82
2022/09/26 03:07:38;;;;;;;;;;;;;;;21.66;39.85;100564.80;104188;1316;62226;-83
2022/09/26 03:10:04;;;;;;;;;;;;;;;21.65;40.05;100565.37;104099;1316;75543;-82
2022/09/26 03:12:30;;;;;;;;;;;;;;;21.66;39.87;100560.48;104134;1316;62132;-83
2022/09/26 03:14:56;;;;;;;;;;;;;;;21.66;39.90;100555.30;104116;1316;62429;-83
2022/09/26 03:17:21;;;;;;;;;;;;;;;21.65;40.04;100560.53;104198;1316;62123;-84
2022/09/26 03:19:49;;;;;;;;;;;;;;;21.64;39.90;100552.88;104162;1315;62051;-82
2022/09/26 03:22:14;;;;;;;;;;;;;;;21.65;39.89;100548.93;104162;1309;62137;-83
2022/09/26 03:24:41;;;;;;;;;;;;;;;21.65;40.08;100547.13;104532;1309;62208;-83
2022/09/26 03:27:06;;;;;;;;;;;;;;;21.64;39.93;100540.54;104598;1309;62079;-83
2022/09/26 03:29:32;;;;;;;;;;;;;;;21.65;39.76;100542.12;104590;1309;62074;-85
2022/09/26 03:31:59;;;;;;;;;;;;;;;21.64;39.81;100534.98;104314;1308;75132;-83
2022/09/26 03:34:25;;;;;;;;;;;;;;;21.64;39.83;100533.20;104260;1311;62012;-83
2022/09/26 03:36:52;;;;;;;;;;;;;;;21.64;39.88;100535.89;104502;1308;62527;-86
2022/09/26 03:39:19;;;;;;;;;;;;;;;21.64;39.80;100542.33;104449;1308;62216;-85
2022/09/26 03:41:45;;;;;;;;;;;;;;;21.63;39.87;100540.98;104462;1309;62156;-83
2022/09/26 03:44:11;;;;;;;;;;;;;;;21.62;39.64;100541.05;104526;1308;62031;-84
2022/09/26 03:46:37;;;;;;;;;;;;;;;21.62;39.72;100545.94;104510;1309;62107;-83
2022/09/26 03:49:02;;;;;;;;;;;;;;;21.59;39.62;100541.24;104536;1308;63217;-83
2022/09/26 03:51:28;;;;;;;;;;;;;;;21.58;39.51;100534.02;104502;1309;62192;-84
2022/09/26 03:53:54;;;;;;;;;;;;;;;21.56;39.49;100540.95;104501;1309;62075;-83
2022/09/26 03:56:19;;;;;;;;;;;;;;;21.53;39.43;100542.10;104456;1308;61960;-85
2022/09/26 03:58:45;;;;;;;;;;;;;;;21.48;39.32;100536.72;104479;1308;62113;-85
2022/09/26 04:01:12;;;;;;;;;;;;;;;21.45;39.27;100537.02;104426;1309;62088;-83
2022/09/26 04:03:39;;;;;;;;;;;;;;;21.41;39.24;100535.84;104462;1309;62170;-88
2022/09/26 04:06:07;;;;;;;;;;;;;;;21.39;39.08;100541.15;104470;1308;62159;-83
2022/09/26 04:08:33;;;;;;;;;;;;;;;21.39;38.99;100539.08;104552;1309;62655;-84
2022/09/26 04:11:02;;;;;;;;;;;;;;;21.37;38.90;100537.39;104466;1309;62148;-82
2022/09/26 04:13:28;;;;;;;;;;;;;;;21.37;38.92;100538.84;104384;1309;75650;-84
2022/09/26 04:15:57;;;;;;;;;;;;;;;21.35;38.73;100537.35;104557;1308;62050;-83
2022/09/26 04:18:25;;;;;;;;;;;;;;;21.33;38.81;100537.17;104452;1308;62101;-86
2022/09/26 04:20:55;;;;;;;;;;;;;;;21.31;38.75;100533.21;104448;1309;74034;-83
2022/09/26 04:23:21;;;;;;;;;;;;;;;21.29;38.65;100530.52;104407;1311;76553;-84
2022/09/26 04:25:47;;;;;;;;;;;;;;;21.26;38.66;100528.20;104506;1311;62253;-83
2022/09/26 04:28:12;;;;;;;;;;;;;;;21.25;38.73;100530.36;104415;1310;62217;-84
2022/09/26 04:30:38;;;;;;;;;;;;;;;21.27;38.61;100529.21;104252;1311;62086;-88
2022/09/26 04:33:04;;;;;;;;;;;;;;;21.29;38.62;100526.25;104201;1311;62106;-82
2022/09/26 04:35:30;;;;;;;;;;;;;;;21.29;38.65;100524.08;104322;1309;62246;-84
2022/09/26 04:37:55;;;;;;;;;;;;;;;21.30;38.55;100521.47;104332;1311;62172;-83
2022/09/26 04:40:21;;;;;;;;;;;;;;;21.30;38.67;100521.27;104240;1311;62144;-82
2022/09/26 04:42:47;;;;;;;;;;;;;;;21.31;38.66;100516.74;104306;1311;62048;-80
2022/09/26 04:45:14;;;;;;;;;;;;;;;21.32;38.49;100522.02;104342;1310;61980;-81
2022/09/26 04:47:40;;;;;;;;;;;;;;;21.33;38.58;100521.83;104302;1311;62232;-83
2022/09/26 04:50:07;;;;;;;;;;;;;;;21.32;38.57;100528.27;104146;1309;62222;-82
2022/09/26 04:52:33;;;;;;;;;;;;;;;21.31;38.53;100528.02;104394;1310;62189;-81
2022/09/26 04:54:58;;;;;;;;;;;;;;;21.27;38.40;100528.49;104134;1311;62043;-84
2022/09/26 04:57:27;;;;;;;;;;;;;;;21.23;38.53;100524.30;104095;1311;62971;-81
2022/09/26 04:59:52;;;;;;;;;;;;;;;21.19;38.48;100523.20;104072;1311;60486;-82
2022/09/26 05:02:19;;;;;;;;;;;;;;;21.13;38.29;100524.88;104179;1311;60311;-83
2022/09/26 05:04:47;;;;;;;;;;;;;;;21.06;38.32;100520.02;104659;1310;60332;-83
2022/09/26 05:07:15;;;;;;;;;;;;;;;21.03;38.30;100511.31;104264;1308;62021;-83
2022/09/26 05:09:41;;;;;;;;;;;;;;;21.04;38.39;100506.04;104107;1309;62201;-84
2022/09/26 05:12:09;;;;;;;;;;;;;;;21.04;38.47;100501.59;104219;1311;73791;-82
2022/09/26 05:14:41;;;;;;;;;;;;;;;21.04;38.42;100501.20;104139;1310;75565;-82
2022/09/26 05:17:08;;;;;;;;;;;;;;;21.06;38.14;100501.66;104217;1311;61960;-82
2022/09/26 05:19:35;;;;;;;;;;;;;;;21.05;38.34;100504.36;104256;1309;62200;-82
2022/09/26 05:22:03;;;;;;;;;;;;;;;21.05;38.08;100508.86;104230;1309;73103;-82
2022/09/26 05:27:14;;;;;;;;;;;;;;;21.04;38.20;100517.35;104247;1310;62150;-83
2022/09/26 05:29:39;;;;;;;;;;;;;;;21.04;37.99;100516.45;104112;1311;62109;-82
2022/09/26 05:32:05;;;;;;;;;;;;;;;21.06;38.06;100520.10;104242;1308;62158;-83
2022/09/26 05:34:57;;;;;;;;;;;;;;;21.06;37.87;100526.08;104252;1308;62739;-82
2022/09/26 05:37:23;;;;;;;;;;;;;;;21.08;37.64;100530.42;103706;1317;62026;-82
2022/09/26 05:42:32;;;;;;;;;;;;;;;21.11;37.77;100525.77;103699;1317;73611;-82
2022/09/26 05:45:02;;;;;;;;;;;;;;;21.12;37.75;100531.79;103604;1317;62150;-83
2022/09/26 05:47:34;;;;;;;;;;;;;;;21.13;37.78;100534.37;103569;1317;62607;-82
2022/09/26 05:50:08;;;;;;;;;;;;;;;21.15;37.69;100532.30;103837;1317;62095;-82
2022/09/26 05:52:36;;;;;;;;;;;;;;;21.16;37.62;100529.69;103806;1316;72857;-82
2022/09/26 05:55:02;;;;;;;;;;;;;;;21.13;37.68;100525.27;103680;1317;76886;-83
2022/09/26 05:57:27;;;;;;;;;;;;;;;21.09;37.47;100521.81;103719;1317;60569;-81
2022/09/26 05:59:55;;;;;;;;;;;;;;;21.07;37.61;100517.66;103557;1316;62284;-83
2022/09/26 06:02:20;;;;;;;;;;;;;;;21.06;37.44;100520.61;103626;1316;62173;-82
2022/09/26 06:04:46;;;;;;;;;;;;;;;21.04;37.47;100525.02;103515;1317;62114;-82
2022/09/26 06:07:11;;;;;;;;;;;;;;;21.02;37.43;100523.72;103827;1317;62072;-83
2022/09/26 06:09:37;;;;;;;;;;;;;;;21.00;37.24;100514.59;103936;1317;61117;-82
2022/09/26 06:12:03;;;;;;;;;;;;;;;21.02;37.40;100511.59;103780;1317;62140;-82
2022/09/26 06:14:28;;;;;;;;;;;;;;;21.05;37.27;100514.90;103759;1311;62085;-82
2022/09/26 06:16:54;;;;;;;;;;;;;;;21.09;37.51;100515.02;104296;1310;60741;-82
2022/09/26 06:19:19;;;;;;;;;;;;;;;21.12;37.57;100515.34;104306;1311;62156;-83
2022/09/26 06:21:45;;;;;;;;;;;;;;;21.15;37.29;100517.62;104264;1311;62105;-82
2022/09/26 06:24:11;;;;;;;;;;;;;;;21.16;37.46;100517.84;104268;1309;62107;-83
2022/09/26 06:26:37;;;;;;;;;;;;;;;21.18;37.57;100523.08;104415;1309;71616;-82
2022/09/26 06:29:03;;;;;;;;;;;;;;;21.21;37.38;100527.01;104374;1308;62129;-84
2022/09/26 06:31:28;;;;;;;;;;;;;;;21.22;37.60;100530.09;104176;1308;62293;-84
2022/09/26 06:33:54;;;;;;;;;;;;;;;21.23;37.54;100527.67;104405;1308;62141;-83
2022/09/26 06:36:20;;;;;;;;;;;;;;;21.23;37.38;100528.95;104243;1308;62198;-83
2022/09/26 06:38:46;;;;;;;;;;;;;;;21.23;37.26;100531.27;104226;1309;62138;-82
2022/09/26 06:41:35;;;;;;;;;;;;;;;21.21;37.37;100529.63;104327;1309;62177;-83
2022/09/26 06:44:02;;;;;;;;;;;;;;;21.22;37.33;100531.20;103896;1315;62144;-83
2022/09/26 06:46:37;;;;;;;;;;;;;;;21.24;37.26;100526.40;103973;1314;61989;-83
2022/09/26 06:49:02;;;;;;;;;;;;;;;21.26;37.33;100528.23;103882;1314;71795;-82
2022/09/26 06:51:28;;;;;;;;;;;;;;;21.27;37.34;100528.12;103739;1314;62233;-84
2022/09/26 06:54:03;;;;;;;;;;;;;;;21.28;37.28;100525.94;103734;1314;62117;-83
2022/09/26 06:56:28;;;;;;;;;;;;;;;21.32;37.54;100522.71;103728;1317;61997;-84
2022/09/26 06:58:54;;;;;;;;;;;;;;;21.34;37.48;100520.63;103795;1314;62095;-82
2022/09/26 07:01:19;;;;;;;;;;;;;;;21.32;37.56;100522.73;103771;1314;62056;-83
2022/09/26 07:03:47;;;;;;;;;;;;;;;21.33;37.41;100519.77;103884;1314;62238;-82
2022/09/26 07:06:13;;;;;;;;;;;;;;;21.33;37.44;100515.67;103773;1314;62225;-82
2022/09/26 07:08:40;;;;;;;;;;;;;;;21.30;37.29;100519.27;103652;1314;60350;-84
2022/09/26 07:11:06;;;;;;;;;;;;;;;21.31;37.38;100525.88;103851;1314;61103;-82
2022/09/26 07:13:34;;;;;;;;;;;;;;;21.32;37.36;100527.95;103735;1317;62230;-82
2022/09/26 07:15:59;;;;;;;;;;;;;;;21.33;37.56;100528.37;103651;1317;62053;-83
2022/09/26 07:18:25;;;;;;;;;;;;;;;21.36;37.45;100528.15;104026;1314;59760;-83
2022/09/26 07:20:52;;;;;;;;;;;;;;;21.40;37.81;100525.02;104023;1308;60692;-84
2022/09/26 07:23:17;;;;;;;;;;;;;;;21.44;37.90;100526.15;104209;1308;63323;-83
2022/09/26 07:25:44;;;;;;;;;;;;;;;21.46;37.97;100522.19;104334;1309;63438;-85
2022/09/26 07:28:09;;;;;;;;;;;;;;;21.48;38.09;100521.87;104500;1309;62102;-83
2022/09/26 07:30:35;;;;;;;;;;;;;;;21.49;37.89;100521.42;104396;1307;62061;-82
2022/09/26 07:33:02;;;;;;;;;;;;;;;21.51;37.89;100521.11;104237;1309;61987;-83
2022/09/26 07:35:31;;;;;;;;;;;;;;;21.53;37.85;100519.20;104336;1308;60734;-82
2022/09/26 07:37:57;;;;;;;;;;;;;;;21.55;37.69;100516.88;104448;1308;62094;-82
2022/09/26 07:40:23;;;;;;;;;;;;;;;21.56;37.77;100506.79;104414;1308;60698;-81
2022/09/26 07:42:50;;;;;;;;;;;;;;;21.57;37.61;100499.69;104176;1308;60340;-83
2022/09/26 07:45:16;;;;;;;;;;;;;;;21.58;37.78;100498.01;104243;1309;63130;-83
2022/09/26 07:50:28;;;;;;;;;;;;;;;21.60;37.38;100496.78;104413;1308;71721;-83
2022/09/26 07:52:55;;;;;;;;;;;;;;;21.62;37.50;100496.13;104309;1308;60951;-82
2022/09/26 07:55:23;;;;;;;;;;;;;;;21.63;37.50;100488.90;104363;1309;62188;-82
2022/09/26 07:57:49;;;;;;;;;;;;;;;21.64;37.52;100490.44;104601;1309;62836;-83
2022/09/26 08:00:16;;;;;;;;;;;;;;;21.64;37.43;100491.12;104300;1309;62100;-83
2022/09/26 08:02:43;;;;;;;;;;;;;;;21.65;37.57;100491.98;104251;1308;63580;-82
2022/09/26 08:05:09;;;;;;;;;;;;;;;21.64;37.46;100484.87;104271;1309;62137;-84
2022/09/26 08:07:35;;;;;;;;;;;;;;;21.65;37.64;100479.62;104262;1309;62133;-82
2022/09/26 08:10:01;;;;;;;;;;;;;;;21.67;37.61;100472.98;104815;1308;62100;-83
2022/09/26 08:12:27;;;;;;;;;;;;;;;21.67;37.57;100470.82;104240;1309;62009;-82
2022/09/26 08:14:53;;;;;;;;;;;;;;;21.66;37.59;100464.44;104432;1308;62063;-82
2022/09/26 08:17:19;;;;;;;;;;;;;;;21.66;37.56;100464.48;104396;1308;62125;-84
2022/09/26 08:19:44;;;;;;;;;;;;;;;21.65;37.56;100466.67;104182;1308;62140;-82
2022/09/26 08:22:10;;;;;;;;;;;;;;;21.64;37.29;100464.44;104212;1309;62294;-82
2022/09/26 08:24:36;;;;;;;;;;;;;;;21.65;37.21;100458.14;104370;1308;62122;-82
2022/09/26 08:27:01;;;;;;;;;;;;;;;21.66;37.15;100451.79;104256;1309;62671;-83
2022/09/26 08:29:29;;;;;;;;;;;;;;;21.66;37.07;100449.83;104325;1308;62184;-82
2022/09/26 08:31:57;;;;;;;;;;;;;;;21.64;36.86;100446.87;104300;1308;73986;-82
2022/09/26 08:34:22;;;;;;;;;;;;;;;21.64;36.68;100444.55;104316;1308;75155;-80
2022/09/26 08:36:52;;;;;;;;;;;;;;;21.64;36.61;100448.11;104308;1309;63242;-82
2022/09/26 08:39:18;;;;;;;;;;;;;;;21.65;36.59;100440.75;104355;1308;60518;-84
2022/09/26 08:41:48;;;;;;;;;;;;;;;21.66;36.46;100435.30;104198;1308;62182;-83
2022/09/26 08:44:34;;;;;;;;;;;;;;;21.67;36.31;100434.09;104400;1308;76783;-82
2022/09/26 08:47:05;;;;;;;;;;;;;;;21.68;36.33;100438.67;103850;1315;61046;-84
2022/09/26 08:49:30;;;;;;;;;;;;;;;21.69;36.32;100437.73;103750;1315;61915;-82
2022/09/26 08:51:58;;;;;;;;;;;;;;;21.69;36.18;100436.86;103833;1314;62287;-84
2022/09/26 08:54:33;;;;;;;;;;;;;;;21.67;36.13;100436.11;103699;1315;62089;-82
2022/09/26 08:57:00;;;;;;;;;;;;;;;21.66;36.19;100435.46;103649;1317;63052;-83
2022/09/26 08:59:28;;;;;;;;;;;;;;;21.66;36.32;100441.38;103877;1315;60615;-84
2022/09/26 09:01:54;;;;;;;;;;;;;;;21.67;36.34;100435.70;103594;1317;72822;-82
2022/09/26 09:04:25;;;;;;;;;;;;;;;21.69;36.48;100425.16;103367;1317;61888;-82
2022/09/26 09:06:54;;;;;;;;;;;;;;;21.70;36.59;100421.30;103569;1315;62384;-82
2022/09/26 09:09:22;;;;;;;;;;;;;;;21.74;36.75;100414.21;103633;1315;62059;-81
2022/09/26 09:12:07;;;;;;;;;;;;;;;21.76;36.83;100407.79;103701;1316;72709;-82
2022/09/26 09:14:49;;;;;;;;;;;;;;;21.76;36.73;100404.35;103751;1317;75837;-81
2022/09/26 09:17:33;;;;;;;;;;;;;;;21.76;36.78;100399.34;103677;1317;62001;-84
2022/09/26 09:20:09;;;;;;;;;;;;;;;21.76;36.71;100404.73;103820;1314;61970;-83
2022/09/26 09:22:39;;;;;;;;;;;;;;;21.76;36.56;100400.58;103593;1317;73021;-82
2022/09/26 09:25:08;;;;;;;;;;;;;;;21.78;36.48;100412.14;104218;1308;75491;-82
2022/09/26 09:27:33;;;;;;;;;;;;;;;21.78;36.30;100422.34;104503;1308;60210;-83
2022/09/26 09:29:58;;;;;;;;;;;;;;;21.79;36.24;100419.75;104381;1308;62078;-82
2022/09/26 09:32:26;;;;;;;;;;;;;;;21.80;36.47;100415.58;104419;1308;62222;-84
2022/09/26 09:34:51;;;;;;;;;;;;;;;21.81;36.43;100414.05;104364;1308;62018;-82
2022/09/26 09:37:21;;;;;;;;;;;;;;;21.81;36.31;100405.92;104448;1307;62188;-81
2022/09/26 09:39:46;;;;;;;;;;;;;;;21.82;36.35;100397.86;104390;1308;60583;-82
2022/09/26 09:42:21;;;;;;;;;;;;;;;21.81;36.54;100391.63;104451;1309;73995;-83
2022/09/26 09:44:54;;;;;;;;;;;;;;;21.81;36.29;100387.67;104434;1308;75763;-82
2022/09/26 09:47:20;;;;;;;;;;;;;;;21.81;36.15;100390.59;104457;1308;63067;-84
2022/09/26 09:49:46;;;;;;;;;;;;;;;21.82;36.21;100392.10;104451;1308;62196;-83
2022/09/26 09:52:31;;;;;;;;;;;;;;;21.82;36.43;100392.78;104263;1309;61131;-82
2022/09/26 09:55:00;;;;;;;;;;;;;;;21.82;36.48;100386.16;104495;1308;75386;-83
2022/09/26 09:57:37;;;;;;;;;;;;;;;21.83;36.38;100379.66;104468;1308;62091;-82
2022/09/26 10:00:08;;;;;;;;;;;;;;;21.83;36.65;100374.63;104412;1309;60779;-82
2022/09/26 10:02:36;;;;;;;;;;;;;;;21.84;36.58;100371.16;103827;1308;745495;-83
2022/09/26 10:05:02;;;;;;;;;;;;;;;21.84;36.39;100370.62;104543;1307;76838;-82
2022/09/26 10:07:27;;;;;;;;;;;;;;;21.85;36.55;100372.51;104400;1308;60488;-82
2022/09/26 10:09:53;;;;;;;;;;;;;;;21.86;36.64;100366.50;104523;1308;60981;-82
2022/09/26 10:12:19;;;;;;;;;;;;;;;21.87;36.55;100369.45;104314;1308;62169;-81
2022/09/26 10:14:48;;;;;;;;;;;;;;;21.89;36.25;100376.63;104418;1308;62093;-82
2022/09/26 10:17:14;;;;;;;;;;;;;;;21.90;35.96;100384.40;104301;1309;62181;-82
2022/09/26 10:19:41;;;;;;;;;;;;;;;21.93;36.17;100379.92;104369;1307;62130;-83
2022/09/26 10:22:18;;;;;;;;;;;;;;;21.94;35.96;100374.77;104258;1308;71923;-82
2022/09/26 10:24:44;;;;;;;;;;;;;;;21.95;35.88;100363.30;105062;1308;75995;-83
2022/09/26 10:27:24;;;;;;;;;;;;;;;21.95;35.81;100361.66;104436;1308;62184;-83
2022/09/26 10:29:56;;;;;;;;;;;;;;;21.95;35.95;100359.49;104818;1308;61544;-83
2022/09/26 10:32:21;;;;;;;;;;;;;;;21.96;36.05;100363.07;104151;1308;73896;-83
2022/09/26 10:35:08;;;;;;;;;;;;;;;21.96;35.89;100360.15;104379;1308;62090;-83
2022/09/26 10:37:35;;;;;;;;;;;;;;;21.97;35.77;100361.37;104147;1308;60942;-83
2022/09/26 10:42:47;;;;;;;;;;;;;;;21.97;35.68;100360.39;104275;1308;72557;-83
2022/09/26 10:45:14;;;;;;;;;;;;;;;21.98;35.62;100361.40;104255;1308;75872;-82
2022/09/26 10:47:42;;;;;;;;;;;;;;;21.97;35.48;100360.21;104416;1308;62137;-83
2022/09/26 10:50:15;;;;;;;;;;;;;;;21.97;35.58;100359.16;104560;1307;61563;-83
2022/09/26 10:52:49;;;;;;;;;;;;;;;21.96;35.65;100351.72;104448;1308;72768;-83
2022/09/26 10:55:15;;;;;;;;;;;;;;;21.96;35.68;100344.23;104193;1309;75787;-84
2022/09/26 10:57:44;;;;;;;;;;;;;;;21.95;35.49;100344.45;104475;1308;62068;-84
2022/09/26 11:00:16;;;;;;;;;;;;;;;21.95;35.56;100347.86;104242;1308;61434;-83
2022/09/26 11:02:43;;;;;;;;;;;;;;;21.96;35.76;100343.17;103531;1308;73960;-81
2022/09/26 11:07:53;;;;;;;;;;;;;;;21.99;35.81;100342.52;104700;1308;61577;-81
2022/09/26 11:10:23;;;;;;;;;;;;;;;22.00;35.68;100343.02;104576;1308;60321;-82
2022/09/26 11:13:21;;;;;;;;;;;;;;;21.99;35.69;100341.60;104666;1308;71776;-82
2022/09/26 11:16:00;;;;;;;;;;;;;;;22.01;35.88;100342.02;103889;1317;75692;-82
2022/09/26 11:18:58;;;;;;;;;;;;;;;22.01;35.88;100337.89;103793;1316;61852;-82
2022/09/26 11:21:33;;;;;;;;;;;;;;;22.02;35.88;100337.81;103056;1322;60626;-83
2022/09/26 11:24:21;;;;;;;;;;;;;;;22.02;35.82;100337.43;103768;1323;73108;-83
2022/09/26 11:26:52;;;;;;;;;;;;;;;22.02;35.73;100338.66;103409;1323;74419;-83
2022/09/26 11:29:39;;;;;;;;;;;;;;;22.02;35.63;100328.61;103242;1322;62026;-83
2022/09/26 11:32:04;;;;;;;;;;;;;;;22.03;35.80;100324.44;102904;1323;62000;-83
2022/09/26 11:34:30;;;;;;;;;;;;;;;22.04;35.90;100319.36;102822;1323;62275;-84
2022/09/26 11:37:02;;;;;;;;;;;;;;;22.03;35.70;100315.99;102913;1322;76504;-83
2022/09/26 11:39:34;;;;;;;;;;;;;;;22.03;35.94;100313.87;102968;1323;61985;-82
2022/09/26 11:42:13;;;;;;;;;;;;;;;22.03;35.91;100316.42;102863;1325;61888;-82
2022/09/26 11:44:39;;;;;;;;;;;;;;;22.02;35.79;100314.11;102950;1323;73751;-83
2022/09/26 11:47:18;;;;;;;;;;;;;;;22.02;35.97;100312.14;102887;1322;62109;-82
2022/09/26 11:49:48;;;;;;;;;;;;;;;22.02;35.75;100312.53;102914;1323;62114;-85
2022/09/26 11:52:24;;;;;;;;;;;;;;;22.02;35.92;100309.14;103137;1317;62648;-84
2022/09/26 11:54:59;;;;;;;;;;;;;;;22.01;35.89;100305.27;103641;1316;72821;-82
2022/09/26 11:57:32;;;;;;;;;;;;;;;22.01;36.00;100301.51;103554;1311;75530;-84
2022/09/26 12:00:05;;;;;;;;;;;;;;;22.01;35.99;100298.45;104237;1308;61934;-84
2022/09/26 12:02:39;;;;;;;;;;;;;;;22.02;36.33;100284.20;104261;1309;62005;-84
2022/09/26 12:05:12;;;;;;;;;;;;;;;22.03;36.21;100278.02;104231;1309;72719;-82
2022/09/26 12:07:42;;;;;;;;;;;;;;;22.03;36.19;100275.90;104468;1308;76031;-83
2022/09/26 12:10:40;;;;;;;;;;;;;;;22.02;36.31;100273.08;104813;1309;61517;-81
2022/09/26 12:13:10;;;;;;;;;;;;;;;22.03;36.18;100272.96;104115;1310;61492;-81
2022/09/26 12:15:43;;;;;;;;;;;;;;;22.04;36.23;100271.33;104338;1308;73773;-81
2022/09/26 12:18:14;;;;;;;;;;;;;;;22.04;36.28;100268.08;104318;1309;76635;-84
2022/09/26 12:20:52;;;;;;;;;;;;;;;22.04;36.44;100268.96;104275;1308;62255;-84
2022/09/26 12:23:31;;;;;;;;;;;;;;;22.04;36.35;100266.84;104723;1308;60866;-81
2022/09/26 12:26:13;;;;;;;;;;;;;;;22.04;36.41;100266.13;104316;1308;72636;-82
2022/09/26 12:28:41;;;;;;;;;;;;;;;22.04;36.32;100267.00;104500;1309;75439;-83
2022/09/26 12:31:11;;;;;;;;;;;;;;;22.04;36.26;100261.10;104425;1309;61183;-83
2022/09/26 12:33:43;;;;;;;;;;;;;;;22.04;36.19;100255.17;104453;1308;61987;-84
2022/09/26 12:36:17;;;;;;;;;;;;;;;22.05;36.31;100251.34;104371;1308;73254;-85
2022/09/26 12:38:46;;;;;;;;;;;;;;;22.06;36.35;100253.78;104269;1308;76696;-83
2022/09/26 12:41:15;;;;;;;;;;;;;;;22.06;36.41;100250.72;104372;1309;62081;-83
2022/09/26 12:43:41;;;;;;;;;;;;;;;22.06;36.60;100248.55;104434;1307;61985;-83
2022/09/26 12:46:20;;;;;;;;;;;;;;;22.06;36.55;100246.94;104337;1308;62837;-83
2022/09/26 12:49:05;;;;;;;;;;;;;;;22.07;36.66;100242.44;104433;1308;75660;-84
2022/09/26 12:51:43;;;;;;;;;;;;;;;22.08;36.73;100248.08;104462;1309;62085;-82